Time;durP1;ratioP1;P1;durP2;ratioP2;P2;SDS_P1;SDS_P2;PMS_P1;PMS_P2;Temp;Humidity;BMP_temperature;BMP_pressure;BME280_temperature;BME280_humidity;BME280_pressure;Samples;Min_cycle;Max_cycle;Signal;HPM_P1;HPM_P2
2022/03/29 00:00:36;;;;;;;16.90;10.32;;;;;;;6.90;87.35;101778.22;4996629;28;20394;-75
2022/03/29 00:03:06;;;;;;;19.13;9.73;;;;;;;6.86;86.75;101775.00;5016773;28;20037;-75
2022/03/29 00:05:32;;;;;;;19.67;10.60;;;;;;;6.88;86.66;101773.09;5019770;28;20486;-75
2022/03/29 00:07:57;;;;;;;17.08;10.02;;;;;;;6.87;86.60;101773.19;5019213;28;20123;-75
2022/03/29 00:10:23;;;;;;;20.85;11.13;;;;;;;6.75;86.54;101751.22;5015961;28;20041;-75
2022/03/29 00:12:53;;;;;;;16.20;10.02;;;;;;;6.88;86.02;101769.63;5016758;28;20026;-75
2022/03/29 00:15:19;;;;;;;16.80;9.85;;;;;;;6.89;85.83;101759.03;5029985;28;20132;-75
2022/03/29 00:17:44;;;;;;;22.33;10.32;;;;;;;6.94;85.87;101761.34;5018604;28;20500;-76
2022/03/29 00:20:10;;;;;;;19.38;10.02;;;;;;;6.94;85.48;101756.91;5016057;28;20030;-75
2022/03/29 00:22:35;;;;;;;17.60;10.43;;;;;;;6.87;85.55;101739.91;5017275;28;20034;-75
2022/03/29 00:25:01;;;;;;;17.85;10.23;;;;;;;6.93;84.88;101747.38;5017033;28;20039;-75
2022/03/29 00:27:26;;;;;;;18.50;10.77;;;;;;;6.92;85.43;101748.31;5015148;28;20038;-75
2022/03/29 00:29:52;;;;;;;20.02;11.15;;;;;;;6.94;85.50;101746.41;4999220;28;20405;-75
2022/03/29 00:32:18;;;;;;;21.05;11.02;;;;;;;6.92;86.04;101747.47;4998938;28;20037;-74
2022/03/29 00:34:43;;;;;;;22.58;11.43;;;;;;;6.89;86.34;101747.69;5015699;28;20483;-75
2022/03/29 00:37:08;;;;;;;20.90;10.73;;;;;;;6.92;86.21;101753.56;5022604;28;20041;-75
2022/03/29 00:39:34;;;;;;;20.75;11.30;;;;;;;6.82;86.95;101733.31;5029178;28;20035;-75
2022/03/29 00:42:00;;;;;;;20.65;11.70;;;;;;;6.90;86.94;101744.09;4989981;28;20041;-75
2022/03/29 00:44:31;;;;;;;21.08;11.88;;;;;;;6.87;87.64;101739.91;5029882;28;20033;-75
2022/03/29 00:46:58;;;;;;;21.58;11.18;;;;;;;6.87;86.95;101732.03;5021594;28;20033;-75
2022/03/29 00:49:26;;;;;;;20.30;10.52;;;;;;;6.84;86.70;101731.41;5017148;28;20034;-75
2022/03/29 00:51:58;;;;;;;19.25;10.35;;;;;;;6.88;86.37;101733.75;5019300;28;20033;-75
2022/03/29 00:54:28;;;;;;;19.80;10.88;;;;;;;6.79;86.75;101718.59;5024240;28;20021;-75
2022/03/29 00:56:56;;;;;;;18.67;9.97;;;;;;;6.82;86.53;101709.69;5015634;28;20398;-75
2022/03/29 00:59:22;;;;;;;21.33;11.10;;;;;;;6.88;86.62;101723.25;5015562;28;20311;-75
2022/03/29 01:01:48;;;;;;;16.08;10.27;;;;;;;6.71;86.22;101689.44;5016478;28;20386;-75
2022/03/29 01:04:14;;;;;;;24.88;10.45;;;;;;;6.87;86.45;101702.34;4998639;28;20029;-75
2022/03/29 01:06:39;;;;;;;21.00;10.90;;;;;;;6.71;87.01;101681.56;5018424;28;20570;-75
2022/03/29 01:09:05;;;;;;;19.90;10.98;;;;;;;6.84;87.16;101705.16;5021730;28;20040;-75
2022/03/29 01:11:31;;;;;;;22.80;10.38;;;;;;;6.79;86.89;101690.59;5019945;28;20034;-75
2022/03/29 01:13:58;;;;;;;19.20;9.90;;;;;;;6.83;86.76;101696.47;5014172;28;20255;-75
2022/03/29 01:19:11;;;;;;;18.05;10.07;;;;;;;6.82;85.93;101689.53;5022203;28;20417;-75
2022/03/29 01:21:39;;;;;;;17.63;10.38;;;;;;;6.78;85.66;101680.19;5020547;28;20037;-75
2022/03/29 01:24:05;;;;;;;17.02;9.40;;;;;;;6.74;86.08;101665.59;5018059;28;20175;-75
2022/03/29 01:26:33;;;;;;;16.25;10.10;;;;;;;6.83;85.10;101685.97;5017608;28;20083;-75
2022/03/29 01:29:00;;;;;;;16.15;9.75;;;;;;;6.84;85.02;101686.78;5013264;28;20120;-75
2022/03/29 01:31:25;;;;;;;18.45;9.48;;;;;;;6.84;85.07;101678.91;5016439;28;20034;-75
2022/03/29 01:33:51;;;;;;;15.90;9.68;;;;;;;6.86;85.43;101674.41;5025434;28;20026;-75
2022/03/29 01:36:17;;;;;;;18.88;10.70;;;;;;;6.81;85.66;101666.84;5016152;28;20029;-75
2022/03/29 01:38:42;;;;;;;21.20;10.35;;;;;;;6.87;85.26;101682.19;5022881;28;20234;-75
2022/03/29 01:41:09;;;;;;;19.33;10.48;;;;;;;6.85;85.31;101667.50;5022203;28;20068;-74
2022/03/29 01:43:35;;;;;;;20.60;10.65;;;;;;;6.87;85.61;101671.69;5019147;28;20021;-74
2022/03/29 01:46:00;;;;;;;20.92;10.63;;;;;;;6.83;86.19;101680.72;5015776;28;20056;-75
2022/03/29 01:48:26;;;;;;;18.35;10.73;;;;;;;6.66;86.78;101646.91;5016808;28;20034;-75
2022/03/29 01:50:52;;;;;;;17.13;10.00;;;;;;;6.69;87.53;101646.72;5019225;28;20527;-75
2022/03/29 01:53:25;;;;;;;19.92;10.70;;;;;;;6.84;87.24;101661.41;5018091;28;20052;-75
2022/03/29 01:55:58;;;;;;;16.10;10.25;;;;;;;6.69;86.92;101641.47;5005560;28;20095;-75
2022/03/29 01:58:29;;;;;;;19.33;10.57;;;;;;;6.74;87.16;101649.88;5016567;28;20026;-75
2022/03/29 02:00:55;;;;;;;19.42;9.90;;;;;;;6.82;87.36;101657.22;5020936;28;20208;-75
2022/03/29 02:03:21;;;;;;;17.25;10.18;;;;;;;6.83;86.67;101654.47;5020585;28;20100;-75
2022/03/29 02:05:46;;;;;;;20.70;9.50;;;;;;;6.82;87.15;101652.81;5016731;28;20037;-75
2022/03/29 02:08:11;;;;;;;22.33;9.48;;;;;;;6.81;87.67;101651.13;5018809;28;20044;-75
2022/03/29 02:10:38;;;;;;;18.50;9.68;;;;;;;6.73;87.30;101638.53;5018048;28;20087;-74
2022/03/29 02:13:04;;;;;;;19.20;10.38;;;;;;;6.77;87.92;101661.00;5020873;28;20112;-74
2022/03/29 02:15:29;;;;;;;18.95;10.98;;;;;;;6.79;87.49;101658.25;5017969;28;20053;-74
2022/03/29 02:17:55;;;;;;;20.75;11.15;;;;;;;6.68;87.83;101642.41;5021725;28;20071;-74
2022/03/29 02:20:22;;;;;;;22.52;11.27;;;;;;;6.67;88.07;101635.50;5018529;28;20064;-74
2022/03/29 02:22:48;;;;;;;22.67;11.50;;;;;;;6.81;87.72;101656.38;5015157;28;20052;-74
2022/03/29 02:25:14;;;;;;;21.00;10.15;;;;;;;6.80;87.99;101662.56;5022284;28;20543;-75
2022/03/29 02:27:41;;;;;;;18.80;10.60;;;;;;;6.81;87.75;101651.13;5020949;28;20022;-75
2022/03/29 02:30:08;;;;;;;18.35;10.73;;;;;;;6.67;87.26;101628.47;5018948;28;20037;-74
2022/03/29 02:32:34;;;;;;;21.35;11.00;;;;;;;6.80;86.76;101647.66;5015669;28;20021;-75
2022/03/29 02:34:59;;;;;;;21.00;10.88;;;;;;;6.83;87.09;101649.22;5017329;28;20509;-75
2022/03/29 02:37:25;;;;;;;23.20;10.50;;;;;;;6.75;86.93;101630.53;5016757;28;20029;-76
2022/03/29 02:39:50;;;;;;;19.85;10.25;;;;;;;6.77;87.04;101633.91;5016587;28;20432;-75
2022/03/29 02:42:15;;;;;;;17.27;10.02;;;;;;;6.84;87.12;101635.19;5000442;28;20061;-75
2022/03/29 02:44:41;;;;;;;20.08;10.75;;;;;;;6.85;87.67;101636.84;5017245;28;20097;-75
2022/03/29 02:47:07;;;;;;;20.38;10.38;;;;;;;6.79;87.77;101632.00;5013991;28;20067;-75
2022/03/29 02:49:32;;;;;;;19.60;11.05;;;;;;;6.85;87.84;101636.84;5021179;28;20059;-75
2022/03/29 02:51:58;;;;;;;16.92;8.65;;;;;;;6.83;87.05;101641.34;5015351;28;20026;-75
2022/03/29 02:54:24;;;;;;;19.63;11.23;;;;;;;6.86;87.31;101637.69;5018816;28;20037;-75
2022/03/29 02:56:50;;;;;;;21.55;9.73;;;;;;;6.86;87.24;101629.81;5015457;28;20386;-75
2022/03/29 02:59:16;;;;;;;18.83;9.70;;;;;;;6.86;87.33;101628.03;5015612;28;20084;-75
2022/03/29 03:01:42;;;;;;;18.30;9.57;;;;;;;6.88;87.55;101626.16;5016611;28;20053;-74
2022/03/29 03:04:07;;;;;;;21.20;11.73;;;;;;;6.86;87.31;101625.41;5014629;28;20034;-74
2022/03/29 03:06:33;;;;;;;18.05;10.10;;;;;;;6.77;87.08;101612.91;5015368;28;20034;-74
2022/03/29 03:08:59;;;;;;;19.05;10.45;;;;;;;6.68;86.58;101589.94;5000570;28;20035;-75
2022/03/29 03:11:26;;;;;;;21.00;10.68;;;;;;;6.85;86.54;101617.63;5017704;28;20028;-75
2022/03/29 03:13:51;;;;;;;17.95;10.18;;;;;;;6.83;86.24;101612.50;5017436;28;20100;-75
2022/03/29 03:16:17;;;;;;;19.25;10.45;;;;;;;6.83;86.33;101614.28;5016471;28;20041;-75
2022/03/29 03:18:42;;;;;;;19.17;10.20;;;;;;;6.75;86.86;101597.31;5020365;28;20117;-75
2022/03/29 03:21:08;;;;;;;20.52;10.20;;;;;;;6.75;86.10;101592.06;5014884;28;20037;-74
2022/03/29 03:23:33;;;;;;;19.92;9.95;;;;;;;6.84;85.89;101602.81;5017856;28;20048;-74
2022/03/29 03:25:59;;;;;;;19.83;10.30;;;;;;;6.83;85.50;101602.00;5014551;28;20038;-74
2022/03/29 03:28:24;;;;;;;16.42;9.43;;;;;;;6.84;85.93;101598.44;5013076;28;20026;-74
2022/03/29 03:30:49;;;;;;;22.15;10.73;;;;;;;6.84;86.33;101593.19;5018925;28;20030;-74
2022/03/29 03:33:15;;;;;;;21.02;10.30;;;;;;;6.86;86.20;101596.56;5019212;28;20037;-74
2022/03/29 03:35:40;;;;;;;17.77;10.25;;;;;;;6.85;86.26;101592.22;4999389;28;20367;-75
2022/03/29 03:38:07;;;;;;;15.98;10.80;;;;;;;6.79;87.01;101582.16;5007243;28;20034;-75
2022/03/29 03:40:32;;;;;;;21.13;11.43;;;;;;;6.85;86.63;101588.78;5020199;28;20064;-75
2022/03/29 03:42:58;;;;;;;18.42;9.85;;;;;;;6.83;87.06;101580.19;5021353;28;20117;-75
2022/03/29 03:45:23;;;;;;;21.65;11.18;;;;;;;6.84;87.65;101584.47;5021222;28;20395;-75
2022/03/29 03:47:49;;;;;;;17.85;9.95;;;;;;;6.83;87.65;101569.69;5018800;28;20423;-75
2022/03/29 03:50:14;;;;;;;21.80;10.68;;;;;;;6.83;86.73;101570.50;5015680;28;20026;-74
2022/03/29 03:52:40;;;;;;;22.60;11.38;;;;;;;6.74;87.49;101565.91;5022968;28;20029;-74
2022/03/29 03:55:06;;;;;;;22.73;10.88;;;;;;;6.70;88.00;101564.44;5019737;28;20026;-74
2022/03/29 03:57:31;;;;;;;18.58;10.38;;;;;;;6.76;87.73;101579.78;5019537;28;20029;-74
2022/03/29 03:59:57;;;;;;;21.38;10.15;;;;;;;6.77;86.71;101573.56;5023100;28;20036;-74
2022/03/29 04:02:23;;;;;;;20.40;10.75;;;;;;;6.78;86.19;101567.38;5006684;28;20030;-74
2022/03/29 04:04:49;;;;;;;19.02;10.80;;;;;;;6.79;85.68;101564.66;5019496;28;20080;-74
2022/03/29 04:07:14;;;;;;;21.35;11.27;;;;;;;6.82;85.77;101568.84;5019405;28;20045;-74
2022/03/29 04:09:39;;;;;;;24.65;10.90;;;;;;;6.68;85.85;101547.97;5020140;28;20072;-74
2022/03/29 04:12:07;;;;;;;24.80;11.48;;;;;;;6.81;85.45;101559.28;5002629;28;20033;-74
2022/03/29 04:14:32;;;;;;;20.42;11.00;;;;;;;6.83;85.71;101561.81;5019511;28;20087;-74
2022/03/29 04:16:58;;;;;;;18.67;10.55;;;;;;;6.82;85.87;101557.53;5017496;28;20576;-74
2022/03/29 04:19:24;;;;;;;22.63;10.25;;;;;;;6.82;85.87;101553.09;5022514;28;20032;-74
2022/03/29 04:21:50;;;;;;;18.08;10.05;;;;;;;6.72;86.08;101536.31;5019917;28;20057;-74
2022/03/29 04:24:16;;;;;;;26.52;10.02;;;;;;;6.83;85.53;101561.81;5002547;28;20478;-74
2022/03/29 04:26:41;;;;;;;16.50;9.40;;;;;;;6.83;85.84;101553.94;5018536;28;20030;-74
2022/03/29 04:29:07;;;;;;;22.02;11.15;;;;;;;6.72;86.83;101533.72;5019650;28;20033;-74
2022/03/29 04:31:32;;;;;;;19.23;11.05;;;;;;;6.78;86.63;101541.16;5020695;28;20018;-74
2022/03/29 04:33:59;;;;;;;17.98;10.18;;;;;;;6.79;86.65;101537.56;5021799;28;20109;-74
2022/03/29 04:36:25;;;;;;;20.50;11.10;;;;;;;6.77;86.57;101535.06;5019789;28;20025;-75
2022/03/29 04:38:51;;;;;;;21.88;10.40;;;;;;;6.64;86.38;101517.66;5022870;28;20505;-75
2022/03/29 04:41:16;;;;;;;22.25;12.25;;;;;;;6.74;86.62;101531.81;5016339;28;20905;-74
2022/03/29 04:43:42;;;;;;;20.00;12.38;;;;;;;6.74;86.41;101531.81;5018305;28;20033;-75
2022/03/29 04:46:07;;;;;;;20.23;11.68;;;;;;;6.74;86.78;101539.69;5021353;28;20026;-75
2022/03/29 04:48:32;;;;;;;25.70;10.95;;;;;;;6.74;86.91;101529.19;5020159;28;20044;-75
2022/03/29 04:50:58;;;;;;;23.98;13.13;;;;;;;6.72;88.03;101531.09;5001098;28;20495;-75
2022/03/29 04:53:24;;;;;;;22.05;11.10;;;;;;;6.68;88.33;101529.63;5002439;28;20030;-74
2022/03/29 04:55:50;;;;;;;25.50;11.00;;;;;;;6.59;87.82;101515.38;5020568;28;20026;-74
2022/03/29 04:58:16;;;;;;;22.33;12.30;;;;;;;6.66;87.81;101537.59;5023264;28;20041;-75
2022/03/29 05:00:42;;;;;;;21.10;11.35;;;;;;;6.70;88.32;101538.22;5018065;28;20616;-74
2022/03/29 05:03:08;;;;;;;19.48;11.07;;;;;;;6.69;88.01;101533.94;5001523;28;20265;-74
2022/03/29 05:05:33;;;;;;;21.80;11.10;;;;;;;6.68;88.23;101534.88;5016509;28;20034;-74
2022/03/29 05:07:59;;;;;;;22.38;11.10;;;;;;;6.70;88.52;101528.56;5015591;28;20576;-74
2022/03/29 05:10:24;;;;;;;20.08;11.63;;;;;;;6.71;88.34;101525.00;5014479;28;20083;-74
2022/03/29 05:12:53;;;;;;;21.38;10.82;;;;;;;6.67;88.26;101518.28;5010805;28;20120;-74
2022/03/29 05:15:20;;;;;;;23.00;11.75;;;;;;;6.70;88.54;101530.34;5017535;28;20064;-74
2022/03/29 05:17:46;;;;;;;24.95;12.25;;;;;;;6.66;88.85;101527.09;5016795;28;20028;-74
2022/03/29 05:20:13;;;;;;;23.52;12.82;;;;;;;6.71;87.98;101532.03;5016123;28;20034;-74
2022/03/29 05:22:50;;;;;;;19.13;12.63;;;;;;;6.72;87.65;101529.28;5001155;28;20258;-74
2022/03/29 05:25:18;;;;;;;23.98;11.77;;;;;;;6.73;87.53;101535.41;5013792;28;20033;-74
2022/03/29 05:27:44;;;;;;;22.25;12.13;;;;;;;6.73;88.02;101523.09;5014313;28;20075;-74
2022/03/29 05:30:12;;;;;;;25.80;12.43;;;;;;;6.74;87.37;101524.78;5016196;28;20092;-74
2022/03/29 05:32:37;;;;;;;22.77;12.75;;;;;;;6.64;87.64;101502.78;5013588;28;20033;-74
2022/03/29 05:35:05;;;;;;;23.58;11.43;;;;;;;6.76;87.48;101516.81;5014758;28;20033;-74
2022/03/29 05:37:31;;;;;;;22.02;11.07;;;;;;;6.78;86.73;101514.91;5006803;28;20112;-74
2022/03/29 05:39:56;;;;;;;24.77;13.75;;;;;;;6.79;87.06;101519.19;5010755;28;20029;-74
2022/03/29 05:42:21;;;;;;;22.45;11.57;;;;;;;6.77;86.50;101513.22;5012449;28;20091;-75
2022/03/29 05:44:47;;;;;;;26.88;12.90;;;;;;;6.81;87.00;101506.81;5001141;28;20044;-75
2022/03/29 05:50:16;;;;;;;19.00;11.68;;;;;;;6.86;86.81;101503.84;4996947;28;20053;-75
2022/03/29 05:52:42;;;;;;;20.52;12.80;;;;;;;6.87;86.89;101505.53;5006423;28;20596;-78
2022/03/29 05:55:08;;;;;;;24.73;12.90;;;;;;;6.91;86.89;101502.59;4990706;28;20076;-75
2022/03/29 05:57:34;;;;;;;23.05;12.75;;;;;;;6.95;87.38;101505.84;5008576;28;20087;-75
2022/03/29 05:59:59;;;;;;;20.48;12.20;;;;;;;6.94;87.13;101498.91;4989985;28;20099;-75
2022/03/29 06:02:24;;;;;;;20.42;11.90;;;;;;;6.99;87.34;101509.94;4989760;28;20116;-75
2022/03/29 06:04:50;;;;;;;21.58;11.82;;;;;;;7.03;86.80;101510.53;5008223;28;20443;-75
2022/03/29 06:07:15;;;;;;;36.17;12.13;;;;;;;7.05;87.32;101516.50;4991936;28;20057;-75
2022/03/29 06:09:41;;;;;;;20.70;11.80;;;;;;;7.09;87.48;101520.59;5008880;28;20160;-75
2022/03/29 06:12:06;;;;;;;22.90;11.88;;;;;;;7.12;87.89;101518.59;4998058;28;20057;-76
2022/03/29 06:14:32;;;;;;;25.85;12.10;;;;;;;7.15;87.24;101517.53;4993005;28;20509;-74
2022/03/29 06:16:57;;;;;;;22.38;11.82;;;;;;;7.17;86.94;101520.88;5008896;28;20053;-77
2022/03/29 06:19:23;;;;;;;20.75;12.02;;;;;;;7.19;86.82;101524.22;4995480;28;20038;-78
2022/03/29 06:21:48;;;;;;;20.48;11.88;;;;;;;7.21;86.90;101522.34;5022641;28;20072;-79
2022/03/29 06:24:14;;;;;;;26.27;12.10;;;;;;;7.14;86.67;101505.31;5009987;28;20037;-80
2022/03/29 06:26:39;;;;;;;31.98;13.55;;;;;;;7.22;86.68;101516.13;5004093;28;20057;-79
2022/03/29 06:29:06;;;;;;;25.25;13.05;;;;;;;7.17;86.84;101510.38;5020221;28;20128;-79
2022/03/29 06:31:32;;;;;;;20.52;11.77;;;;;;;7.31;86.37;101533.81;5023118;28;20394;-79
2022/03/29 06:33:58;;;;;;;27.60;13.35;;;;;;;7.23;85.84;101515.19;5017701;28;20030;-79
2022/03/29 06:36:23;;;;;;;22.92;12.68;;;;;;;7.38;86.16;101537.69;5024686;28;20092;-79
2022/03/29 06:38:49;;;;;;;22.80;12.35;;;;;;;7.44;86.24;101530.31;5020856;28;20033;-79
2022/03/29 06:41:15;;;;;;;22.55;12.10;;;;;;;7.40;85.77;101519.19;5010016;28;20048;-79
2022/03/29 06:43:40;;;;;;;23.98;12.57;;;;;;;7.44;86.17;101511.91;5026030;28;20482;-79
2022/03/29 06:46:08;;;;;;;24.58;12.45;;;;;;;7.58;85.61;101530.97;5023668;28;20037;-79
2022/03/29 06:48:37;;;;;;;23.05;10.98;;;;;;;7.58;85.43;101517.00;5022553;28;20068;-79
2022/03/29 06:51:03;;;;;;;20.60;11.48;;;;;;;7.66;84.79;101522.50;5021560;28;20087;-79
2022/03/29 06:53:29;;;;;;;23.02;12.35;;;;;;;7.78;84.80;101540.00;5024916;28;20424;-80
2022/03/29 06:55:55;;;;;;;22.20;12.98;;;;;;;7.70;85.35;101517.88;5024427;28;20026;-79
2022/03/29 06:58:20;;;;;;;22.27;12.77;;;;;;;7.79;84.80;101528.50;5020034;28;20030;-79
2022/03/29 07:00:46;;;;;;;26.05;12.98;;;;;;;7.91;84.96;101536.44;5014285;28;20176;-79
2022/03/29 07:03:12;;;;;;;22.50;11.55;;;;;;;7.96;84.43;101532.50;5020894;28;20041;-79
2022/03/29 07:05:42;;;;;;;23.05;12.15;;;;;;;8.02;84.99;101533.84;5024668;28;20045;-79
2022/03/29 07:08:10;;;;;;;26.42;12.68;;;;;;;7.99;84.61;101528.81;5031174;28;20056;-79
2022/03/29 07:13:22;;;;;;;24.55;10.63;;;;;;;8.08;85.67;101532.53;5024228;28;20175;-79
2022/03/29 07:15:51;;;;;;;18.20;8.80;;;;;;;8.00;85.18;101539.22;5028102;28;20152;-79
2022/03/29 07:18:18;;;;;;;23.67;9.23;;;;;;;7.95;84.12;101527.38;5024022;28;20520;-80
2022/03/29 07:20:43;;;;;;;25.15;8.60;;;;;;;7.93;83.94;101524.88;5029338;28;20415;-79
2022/03/29 07:23:09;;;;;;;17.17;7.40;;;;;;;7.92;83.75;101530.22;5015476;28;20045;-78
2022/03/29 07:25:35;;;;;;;21.98;8.27;;;;;;;8.00;84.19;101525.22;5017394;28;20108;-78
2022/03/29 07:28:01;;;;;;;19.08;8.27;;;;;;;7.91;84.03;101502.28;5017520;28;20030;-78
2022/03/29 07:30:26;;;;;;;25.15;9.85;;;;;;;7.93;83.23;101505.63;4987533;28;20032;-76
2022/03/29 07:32:55;;;;;;;18.20;8.00;;;;;;;7.89;83.33;101496.31;5015363;28;20030;-76
2022/03/29 07:35:22;;;;;;;18.88;8.40;;;;;;;7.97;82.63;101520.19;5015671;28;20029;-76
2022/03/29 07:37:48;;;;;;;19.15;7.30;;;;;;;7.95;81.93;101515.06;5018766;28;20025;-76
2022/03/29 07:40:17;;;;;;;16.85;8.63;;;;;;;8.07;82.62;101509.81;5017570;28;20029;-77
2022/03/29 07:42:43;;;;;;;20.13;7.88;;;;;;;8.13;81.59;101510.19;5012978;28;20504;-77
2022/03/29 07:45:12;;;;;;;20.45;7.53;;;;;;;8.19;81.12;101503.63;5010910;28;20030;-76
2022/03/29 07:47:41;;;;;;;18.63;8.48;;;;;;;8.33;80.74;101507.81;4997782;28;20120;-76
2022/03/29 07:50:08;;;;;;;19.35;7.80;;;;;;;8.30;79.65;101494.91;5011647;28;20091;-76
2022/03/29 07:52:40;;;;;;;28.40;8.52;;;;;;;8.50;79.63;101491.59;5014435;28;20026;-77
2022/03/29 07:55:08;;;;;;;17.35;7.95;;;;;;;8.62;78.85;101490.63;5014912;28;20032;-76
2022/03/29 07:57:34;;;;;;;22.25;9.13;;;;;;;8.64;78.10;101478.19;5011539;28;20029;-76
2022/03/29 08:00:31;;;;;;;17.90;8.25;;;;;;;8.80;76.88;101492.75;5017304;28;20046;-76
2022/03/29 08:02:45;;;;;;;16.65;7.88;;;;;;;8.87;76.97;101496.56;5018174;28;20502;-78
2022/03/29 08:05:11;;;;;;;17.70;7.45;;;;;;;8.76;76.16;101486.06;5015276;28;20105;-76
2022/03/29 08:07:37;;;;;;;17.83;7.68;;;;;;;8.85;76.10;101485.31;4995063;28;20100;-76
2022/03/29 08:10:02;;;;;;;15.77;7.43;;;;;;;8.88;75.64;101489.50;5014982;28;20091;-76
2022/03/29 08:12:27;;;;;;;20.70;7.80;;;;;;;9.06;76.06;101506.47;5012805;28;20477;-76
2022/03/29 08:14:53;;;;;;;12.40;5.15;;;;;;;8.90;77.29;101492.84;5009534;28;20116;-76
2022/03/29 08:17:18;;;;;;;12.52;4.78;;;;;;;8.99;77.09;101508.75;5000711;28;20021;-76
2022/03/29 08:19:43;;;;;;;16.67;6.50;;;;;;;8.91;76.59;101510.31;5010410;28;20033;-77
2022/03/29 08:22:09;;;;;;;15.05;5.53;;;;;;;8.91;76.32;101511.16;4996452;28;20029;-77
2022/03/29 08:24:35;;;;;;;21.35;7.75;;;;;;;8.92;76.31;101504.91;5016034;28;20052;-77
2022/03/29 08:27:00;;;;;;;14.25;5.50;;;;;;;8.98;75.68;101507.06;5001214;28;20064;-77
2022/03/29 08:29:26;;;;;;;21.63;6.68;;;;;;;8.87;75.20;101499.19;5011786;28;20040;-77
2022/03/29 08:31:53;;;;;;;16.75;5.80;;;;;;;9.02;75.70;101503.22;5013623;28;20030;-76
2022/03/29 08:34:19;;;;;;;19.48;7.22;;;;;;;8.91;75.25;101452.41;5015286;28;20037;-76
2022/03/29 08:36:46;;;;;;;18.05;6.30;;;;;;;9.33;75.14;101499.91;5018034;28;20063;-76
2022/03/29 08:39:11;;;;;;;19.33;5.75;;;;;;;9.40;74.88;101493.97;5015188;28;20041;-77
2022/03/29 08:41:55;;;;;;;18.65;6.18;;;;;;;9.39;74.00;101505.50;5017392;28;20036;-77
2022/03/29 08:44:25;;;;;;;16.98;5.40;;;;;;;9.32;74.08;101496.44;5016437;28;20084;-77
2022/03/29 08:46:51;;;;;;;20.58;5.72;;;;;;;9.32;73.76;101471.88;5018374;28;20029;-77
2022/03/29 08:49:19;;;;;;;19.15;5.43;;;;;;;9.59;73.98;101500.38;5009770;28;20378;-77
2022/03/29 08:51:45;;;;;;;25.23;6.60;;;;;;;9.57;72.63;101499.66;5019815;28;20072;-77
2022/03/29 08:54:10;;;;;;;15.60;6.10;;;;;;;9.55;72.44;101493.69;5018671;28;20119;-77
2022/03/29 08:56:36;;;;;;;14.60;5.25;;;;;;;9.65;72.73;101494.59;5015430;28;20029;-77
2022/03/29 08:59:01;;;;;;;10.10;4.70;;;;;;;9.73;71.90;101501.84;5017764;28;20056;-77
2022/03/29 09:01:27;;;;;;;16.30;5.13;;;;;;;9.86;72.02;101500.72;5005953;28;20025;-77
2022/03/29 09:04:04;;;;;;;14.65;5.00;;;;;;;9.89;72.14;101492.53;5023516;28;20041;-76
2022/03/29 09:06:30;;;;;;;14.23;4.95;;;;;;;9.92;71.87;101474.78;5022908;28;20064;-76
2022/03/29 09:08:56;;;;;;;13.13;4.65;;;;;;;10.05;70.54;101492.06;5022519;28;20095;-76
2022/03/29 09:11:21;;;;;;;12.20;4.45;;;;;;;10.07;70.83;101473.47;5019739;28;20532;-76
2022/03/29 09:14:00;;;;;;;9.82;4.68;;;;;;;10.13;70.56;101491.41;5011227;28;20604;-77
2022/03/29 09:16:28;;;;;;;9.75;4.03;;;;;;;10.13;70.70;101482.69;5012819;28;20087;-77
2022/03/29 09:18:55;;;;;;;12.85;4.70;;;;;;;10.23;71.20;101491.47;5011678;28;20606;-77
2022/03/29 09:21:20;;;;;;;14.73;4.63;;;;;;;10.35;70.72;101484.34;5002710;28;20109;-78
2022/03/29 09:24:08;;;;;;;15.05;5.20;;;;;;;10.28;70.12;101492.75;5016702;28;20094;-77
2022/03/29 09:26:33;;;;;;;13.93;4.32;;;;;;;10.48;68.83;101487.56;5019296;28;20025;-77
2022/03/29 09:28:59;;;;;;;19.13;5.05;;;;;;;10.89;69.21;101485.75;5017381;28;20445;-78
2022/03/29 09:31:27;;;;;;;22.38;4.97;;;;;;;11.07;66.87;101484.09;5018738;28;20562;-78
2022/03/29 09:34:09;;;;;;;17.85;4.80;;;;;;;11.11;66.86;101485.47;5020279;28;20067;-76
2022/03/29 09:36:52;;;;;;;15.75;4.63;;;;;;;10.99;65.99;101478.66;5013610;28;20076;-77
2022/03/29 09:39:29;;;;;;;8.27;3.75;;;;;;;11.22;66.85;101486.34;5014836;28;20021;-75
2022/03/29 09:41:59;;;;;;;14.68;4.20;;;;;;;11.47;66.17;101464.59;5023258;28;20070;-76
2022/03/29 09:44:41;;;;;;;14.40;4.65;;;;;;;12.27;64.37;101482.84;5009288;28;20026;-76
2022/03/29 09:47:09;;;;;;;11.60;3.92;;;;;;;12.54;62.17;101480.22;5013173;28;20034;-76
2022/03/29 09:49:53;;;;;;;11.23;4.18;;;;;;;12.55;62.84;101484.50;5017281;28;20025;-76
2022/03/29 09:52:24;;;;;;;12.07;3.45;;;;;;;12.33;62.20;101482.25;5011925;28;20030;-76
2022/03/29 09:55:15;;;;;;;15.15;3.50;;;;;;;12.13;64.23;101484.16;5009223;28;20053;-76
2022/03/29 09:57:50;;;;;;;13.43;4.40;;;;;;;12.03;64.08;101476.22;5016111;28;20425;-76
2022/03/29 10:00:39;;;;;;;9.95;3.70;;;;;;;11.93;64.78;101476.28;5011547;28;20029;-76
2022/03/29 10:03:09;;;;;;;13.05;2.95;;;;;;;11.68;64.47;101471.56;5018644;28;20033;-76
2022/03/29 10:05:37;;;;;;;11.88;4.13;;;;;;;11.47;64.46;101453.19;5009924;28;20026;-76
2022/03/29 10:10:54;;;;;;;10.30;3.45;;;;;;;11.17;66.63;101467.41;5009982;28;20540;-76
2022/03/29 10:13:23;;;;;;;9.70;2.78;;;;;;;11.19;65.79;101470.75;5014644;28;20045;-76
2022/03/29 10:15:49;;;;;;;20.80;3.92;;;;;;;11.20;66.15;101483.00;5009464;28;20149;-75
2022/03/29 10:18:15;;;;;;;13.98;3.58;;;;;;;11.29;66.33;101466.31;5018646;28;20503;-75
2022/03/29 10:20:43;;;;;;;9.77;3.45;;;;;;;11.20;66.48;101467.13;5016773;28;20036;-75
2022/03/29 10:23:14;;;;;;;13.40;4.18;;;;;;;11.01;65.19;101468.78;5023083;28;20029;-75
2022/03/29 10:25:41;;;;;;;13.00;3.25;;;;;;;10.97;65.37;101462.09;5019907;28;20034;-77
2022/03/29 10:28:08;;;;;;;13.52;4.18;;;;;;;10.97;65.94;101467.38;5002169;28;20057;-77
2022/03/29 10:30:35;;;;;;;11.38;3.63;;;;;;;11.07;66.45;101467.41;5011656;28;20502;-76
2022/03/29 10:33:18;;;;;;;14.25;4.20;;;;;;;11.26;64.30;101445.44;5009810;28;20045;-77
2022/03/29 10:35:59;;;;;;;13.60;4.22;;;;;;;11.59;64.45;101461.84;5019645;28;20176;-77
2022/03/29 10:38:43;;;;;;;13.27;4.05;;;;;;;11.63;63.92;101457.94;5020943;28;20083;-76
2022/03/29 10:41:26;;;;;;;12.00;3.78;;;;;;;11.70;63.39;101464.31;5009689;28;20504;-78
2022/03/29 10:44:04;;;;;;;8.30;4.22;;;;;;;11.69;63.66;101442.34;5008874;28;20029;-77
2022/03/29 10:46:50;;;;;;;8.18;4.75;;;;;;;11.68;63.45;101416.03;5020125;28;20483;-76
2022/03/29 10:49:18;;;;;;;9.23;3.88;;;;;;;12.16;63.23;101462.69;5007938;28;20554;-76
2022/03/29 10:51:44;;;;;;;19.50;4.80;;;;;;;12.29;62.30;101451.75;5008379;28;20561;-76
2022/03/29 10:54:32;;;;;;;13.52;5.18;;;;;;;12.26;62.31;101450.25;5005868;28;20113;-76
2022/03/29 10:57:03;;;;;;;13.23;4.07;;;;;;;12.29;62.44;101434.06;5022226;28;20030;-77
2022/03/29 10:59:31;;;;;;;12.55;5.53;;;;;;;12.41;61.46;101428.56;5012909;28;20416;-75
2022/03/29 11:02:14;;;;;;;13.13;4.82;;;;;;;12.26;60.64;101452.03;5014805;28;20033;-77
2022/03/29 11:05:05;;;;;;;9.10;4.53;;;;;;;12.45;61.89;101448.47;5018644;28;20033;-77
2022/03/29 11:07:35;;;;;;;;;;;;;;;12.39;61.29;101447.25;5019854;28;20034;-76
2022/03/29 11:10:20;;;;;;;13.35;4.78;;;;;;;12.31;61.80;101439.22;5009635;28;20432;-78
2022/03/29 11:12:53;;;;;;;18.65;5.35;;;;;;;12.43;61.70;101442.50;5016093;28;20537;-77
2022/03/29 11:15:24;;;;;;;11.48;4.95;;;;;;;12.21;60.85;101443.72;5016560;28;20053;-77
2022/03/29 11:17:55;;;;;;;11.57;5.10;;;;;;;11.98;61.56;101435.31;5023290;28;20517;-78
2022/03/29 11:20:33;;;;;;;14.50;4.67;;;;;;;11.97;61.23;101436.28;5021798;28;20043;-78
2022/03/29 11:23:07;;;;;;;11.70;5.20;;;;;;;12.05;62.71;101437.22;5011064;28;20285;-77
2022/03/29 11:25:40;;;;;;;12.65;6.13;;;;;;;12.25;62.74;101427.38;5018719;28;20118;-76
2022/03/29 11:28:11;;;;;;;17.17;5.45;;;;;;;12.31;61.43;101439.22;5020558;28;20025;-76
2022/03/29 11:30:37;;;;;;;;;;;;;;;12.35;61.33;101430.84;5019163;28;20025;-76
2022/03/29 11:33:07;;;;;;;14.65;5.15;;;;;;;12.11;62.41;101426.06;5018615;28;20382;-77